Time;durP1;ratioP1;P1;durP2;ratioP2;P2;SDS_P1;SDS_P2;PMS_P1;PMS_P2;Temp;Humidity;BMP_temperature;BMP_pressure;BME280_temperature;BME280_humidity;BME280_pressure;Samples;Min_cycle;Max_cycle;Signal;HPM_P1;HPM_P2
2021/01/30 07:21:49;;;;;;;17.80;12.87;;;-0.10;99.90;;;;;;655734;23;21967;-88
2021/01/30 07:24:26;;;;;;;20.13;15.37;;;-0.10;99.90;;;;;;4844172;29;20476;-92
2021/01/30 07:26:57;;;;;;;17.73;14.30;;;-0.10;99.90;;;;;;4830363;29;20823;-92
2021/01/30 07:29:39;;;;;;;17.37;14.17;;;-0.10;99.90;;;;;;4848701;29;20472;-92
2021/01/30 07:35:13;;;;;;;16.97;14.70;;;-0.10;99.90;;;;;;4848749;29;20552;-93
2021/01/30 07:37:56;;;;;;;18.50;14.53;;;0.00;99.90;;;;;;4834547;29;20469;-92
2021/01/30 07:40:43;;;;;;;15.60;12.87;;;0.00;99.90;;;;;;4850909;29;20583;-93
2021/01/30 07:43:35;;;;;;;15.77;13.73;;;-0.10;99.90;;;;;;4850179;29;20963;-92
2021/01/30 07:46:12;;;;;;;16.87;14.57;;;0.00;99.90;;;;;;4850166;29;20533;-92
2021/01/30 07:48:51;;;;;;;16.23;13.17;;;-0.10;99.90;;;;;;4849956;29;20460;-92
2021/01/30 07:51:30;;;;;;;16.93;12.83;;;-0.10;99.90;;;;;;4820224;29;20563;-92
2021/01/30 07:54:03;;;;;;;16.23;11.83;;;-0.10;99.90;;;;;;4849721;29;20476;-92
2021/01/30 07:56:43;;;;;;;13.80;12.40;;;-0.10;99.90;;;;;;4849931;29;20473;-92
2021/01/30 07:59:29;;;;;;;14.80;11.50;;;0.00;99.90;;;;;;4847994;29;20540;-92
2021/01/30 08:02:32;;;;;;;14.03;12.10;;;0.00;99.90;;;;;;4849743;29;20796;-92
2021/01/30 08:05:22;;;;;;;13.97;12.10;;;0.10;99.90;;;;;;4849701;29;20560;-92
2021/01/30 08:07:57;;;;;;;13.30;11.73;;;0.10;99.90;;;;;;4849367;29;20468;-92
2021/01/30 08:10:35;;;;;;;13.97;12.23;;;0.00;99.90;;;;;;4847879;29;20526;-92
2021/01/30 08:33:12;;;;;;;12.30;10.40;;;0.00;99.90;;;;;;4844875;29;20806;-93
2021/01/30 08:35:48;;;;;;;11.03;9.77;;;0.00;99.90;;;;;;4849437;29;20477;-93
2021/01/30 08:38:37;;;;;;;12.70;11.40;;;0.00;99.90;;;;;;4845019;29;20484;-93
2021/01/30 08:41:52;;;;;;;11.57;9.90;;;0.00;99.90;;;;;;4831882;29;20472;-93
2021/01/30 08:44:39;;;;;;;13.70;11.60;;;0.00;99.90;;;;;;4848090;29;20454;-93
2021/01/30 08:47:31;;;;;;;12.90;11.60;;;0.00;99.90;;;;;;4848202;29;20480;-93
2021/01/30 08:50:11;;;;;;;11.40;10.20;;;0.00;99.90;;;;;;4847047;29;20483;-92
2021/01/30 08:52:48;;;;;;;12.77;10.20;;;0.10;99.90;;;;;;4848035;29;20521;-93
2021/01/30 08:55:53;;;;;;;13.30;11.63;;;0.10;99.90;;;;;;4831179;29;20443;-92
2021/01/30 08:58:50;;;;;;;13.93;12.50;;;0.00;99.90;;;;;;4831560;29;20599;-93
2021/01/30 09:01:47;;;;;;;13.63;11.70;;;0.00;99.90;;;;;;4848183;29;20460;-93
2021/01/30 09:04:59;;;;;;;15.10;13.50;;;0.10;99.90;;;;;;4847461;29;20507;-93
2021/01/30 09:07:48;;;;;;;13.20;11.80;;;0.10;99.90;;;;;;4845116;29;20914;-93
2021/01/30 09:10:36;;;;;;;11.37;10.23;;;0.00;99.90;;;;;;4846463;29;20482;-93
2021/01/30 09:13:12;;;;;;;11.90;10.20;;;0.00;99.90;;;;;;4846608;29;20468;-93
2021/01/30 09:16:05;;;;;;;11.17;9.17;;;0.00;99.90;;;;;;4846218;29;20484;-92
2021/01/30 09:18:53;;;;;;;10.83;9.30;;;0.00;99.90;;;;;;4817603;29;20442;-92
2021/01/30 09:21:45;;;;;;;11.93;10.73;;;0.10;99.90;;;;;;4847020;29;20450;-93
2021/01/30 09:24:56;;;;;;;9.90;8.90;;;0.20;99.90;;;;;;4846797;29;20478;-92
2021/01/30 09:27:32;;;;;;;8.73;7.93;;;0.20;99.90;;;;;;4836272;29;20887;-93
2021/01/30 09:30:25;;;;;;;10.40;9.10;;;0.20;99.90;;;;;;4847587;29;21006;-93
2021/01/30 09:32:55;;;;;;;9.97;8.97;;;0.30;99.90;;;;;;4831367;29;20468;-93
2021/01/30 09:35:30;;;;;;;8.73;7.80;;;0.30;99.90;;;;;;4830795;29;20472;-93
2021/01/30 09:38:02;;;;;;;8.10;7.30;;;0.30;99.90;;;;;;4846840;29;20475;-93
2021/01/30 09:40:32;;;;;;;9.40;8.40;;;0.20;99.90;;;;;;4847493;29;20594;-93
2021/01/30 09:43:12;;;;;;;11.00;9.90;;;0.20;99.90;;;;;;4831076;29;20914;-93
2021/01/30 09:45:52;;;;;;;13.00;10.50;;;0.30;99.90;;;;;;4848106;29;20776;-93
2021/01/30 09:48:24;;;;;;;15.50;13.30;;;0.40;99.90;;;;;;4848015;29;20494;-93
2021/01/30 09:51:06;;;;;;;9.83;8.23;;;0.40;99.90;;;;;;4845098;29;20549;-93
2021/01/30 09:56:40;;;;;;;8.73;7.93;;;0.40;99.90;;;;;;4845419;29;20446;-93
2021/01/30 09:59:15;;;;;;;9.80;8.80;;;0.40;99.90;;;;;;4839278;29;20497;-93
2021/01/30 15:56:39;;;;;;;4.27;3.87;;;1.70;99.90;;;;;;4846430;29;20500;-93
2021/01/30 15:59:14;;;;;;;3.63;3.30;;;1.60;99.90;;;;;;4838099;29;20937;-93
2021/01/30 17:58:30;;;;;;;8.13;5.77;;;0.90;53.80;;;;;;655703;23;21908;-88
2021/01/30 18:01:00;;;;;;;7.53;6.20;;;1.00;99.90;;;;;;4864869;29;20591;-93
2021/01/30 18:06:20;;;;;;;7.10;6.37;;;0.80;99.90;;;;;;4865148;29;20457;-92
2021/01/30 18:08:53;;;;;;;6.93;6.20;;;0.80;99.90;;;;;;4865317;29;20479;-93
2021/01/30 18:11:25;;;;;;;5.57;5.07;;;0.70;1.00;;;;;;4863204;29;20514;-92
2021/01/30 18:16:47;;;;;;;6.77;5.47;;;0.60;1.00;;;;;;4865730;29;20464;-92
2021/01/30 18:19:18;;;;;;;7.57;6.10;;;0.60;1.00;;;;;;4849210;29;20970;-92
2021/01/30 18:21:47;;;;;;;6.80;6.10;;;0.70;1.00;;;;;;4866068;29;20471;-92
2021/01/30 18:24:18;;;;;;;7.10;6.40;;;0.70;99.90;;;;;;4865921;29;20524;-92
2021/01/30 18:26:48;;;;;;;7.60;6.80;;;0.60;99.90;;;;;;4867486;29;20891;-92
2021/01/30 18:29:18;;;;;;;7.80;7.00;;;0.70;1.00;;;;;;4866253;29;20534;-92
2021/01/30 18:31:47;;;;;;;7.07;6.40;;;0.70;1.00;;;;;;4865250;29;20574;-93
2021/01/30 18:34:17;;;;;;;6.90;6.20;;;0.70;99.90;;;;;;4866151;29;20473;-92
2021/01/30 18:36:49;;;;;;;9.50;6.57;;;0.60;99.90;;;;;;4865550;29;20841;-92
2021/01/30 18:39:21;;;;;;;8.67;6.97;;;0.60;99.90;;;;;;4865938;29;20743;-92
2021/01/30 18:41:48;;;;;;;7.80;7.00;;;0.60;1.00;;;;;;4865095;29;20480;-92
2021/01/30 18:44:17;;;;;;;7.10;6.30;;;0.60;1.00;;;;;;4865985;29;20473;-92
2021/01/30 18:46:45;;;;;;;7.90;6.30;;;0.60;1.00;;;;;;4865549;29;20539;-92
2021/01/30 18:49:12;;;;;;;7.07;6.20;;;0.60;99.90;;;;;;4865387;29;20471;-92
2021/01/30 18:51:40;;;;;;;7.10;6.10;;;0.60;1.00;;;;;;4864930;29;20476;-92
2021/01/30 18:54:07;;;;;;;7.33;6.60;;;0.60;1.00;;;;;;4865512;29;20502;-92
2021/01/30 18:56:34;;;;;;;7.57;6.53;;;0.60;1.00;;;;;;4865483;29;20479;-92
2021/01/30 18:59:05;;;;;;;9.00;6.57;;;0.50;1.00;;;;;;4865230;29;20480;-92
2021/01/30 19:01:35;;;;;;;7.30;6.50;;;0.60;1.00;;;;;;4865504;29;20523;-92
2021/01/30 19:04:06;;;;;;;9.40;6.70;;;0.50;1.00;;;;;;4865589;29;20486;-91
2021/01/30 19:06:38;;;;;;;9.33;7.70;;;0.50;99.90;;;;;;4865289;29;20480;-92
2021/01/30 19:09:21;;;;;;;8.90;7.80;;;0.50;99.90;;;;;;4865592;29;20472;-92
2021/01/30 19:11:53;;;;;;;11.93;7.10;;;0.50;1.00;;;;;;4865102;29;20518;-92
2021/01/30 19:14:21;;;;;;;9.50;8.50;;;0.50;1.00;;;;;;4865429;29;20482;-92
2021/01/30 19:16:56;;;;;;;8.23;7.07;;;0.50;33.00;;;;;;4865107;29;20507;-92
2021/01/30 19:19:24;;;;;;;8.67;7.23;;;0.50;99.90;;;;;;4864570;29;20483;-91
2021/01/30 19:21:51;;;;;;;8.30;7.40;;;0.50;1.00;;;;;;4863704;29;20503;-91
2021/01/30 19:24:18;;;;;;;8.63;7.73;;;0.40;99.90;;;;;;4866305;29;20926;-92
2021/01/30 19:26:46;;;;;;;8.70;7.70;;;0.40;99.90;;;;;;4868672;29;20491;-92
2021/01/30 19:29:13;;;;;;;10.60;8.90;;;0.40;1.00;;;;;;4868013;29;20496;-91
2021/01/30 19:31:40;;;;;;;8.60;7.70;;;0.40;99.90;;;;;;4868561;29;20475;-92
2021/01/30 19:34:09;;;;;;;8.90;7.77;;;0.40;1.00;;;;;;4868327;29;20758;-92
2021/01/30 19:36:39;;;;;;;10.30;8.37;;;0.40;24.60;;;;;;4868716;29;20464;-92
2021/01/30 19:39:09;;;;;;;10.70;8.13;;;0.30;99.90;;;;;;4867777;29;20536;-92
2021/01/30 19:41:36;;;;;;;10.20;7.80;;;0.40;99.90;;;;;;4868396;29;20554;-91
2021/01/30 19:44:06;;;;;;;9.67;8.40;;;0.40;1.00;;;;;;4867419;29;20562;-91
2021/01/30 19:46:40;;;;;;;12.33;9.20;;;0.40;99.90;;;;;;4868243;29;20522;-91
2021/01/30 19:49:09;;;;;;;12.63;8.63;;;0.40;99.90;;;;;;4867651;29;20527;-92
2021/01/30 19:51:36;;;;;;;10.00;7.67;;;0.40;1.00;;;;;;4868100;29;20898;-91
2021/01/30 19:54:03;;;;;;;13.00;10.90;;;0.40;1.00;;;;;;4867624;29;20482;-91
2021/01/30 20:03:16;;;;;;;11.03;8.03;;;0.30;1.00;;;;;;4863665;29;20515;-91
2021/01/30 20:05:50;;;;;;;12.53;9.57;;;0.30;4.90;;;;;;4867963;29;20505;-91
2021/01/30 20:08:17;;;;;;;11.70;8.80;;;0.30;99.90;;;;;;4867058;29;20912;-91
2021/01/30 20:10:44;;;;;;;11.80;9.10;;;0.30;99.90;;;;;;4867254;29;20444;-92
2021/01/30 20:13:19;;;;;;;12.30;9.90;;;0.30;99.90;;;;;;4867614;29;20479;-91
2021/01/30 20:15:46;;;;;;;13.33;9.70;;;0.30;99.90;;;;;;4867705;29;20889;-91
2021/01/30 20:18:30;;;;;;;11.93;9.40;;;0.30;99.90;;;;;;4867420;29;20739;-91
2021/01/30 20:21:29;;;;;;;13.00;10.03;;;0.30;99.90;;;;;;4876587;29;20494;-91
2021/01/30 20:27:02;;;;;;;12.30;9.00;;;0.30;99.90;;;;;;4884090;29;20454;-91
2021/01/30 20:29:29;;;;;;;10.33;8.13;;;0.30;99.90;;;;;;4868540;29;20479;-91
2021/01/30 20:32:12;;;;;;;13.30;9.80;;;0.20;99.90;;;;;;4866838;29;20476;-91
2021/01/30 20:34:45;;;;;;;11.43;8.97;;;0.30;1.00;;;;;;4849445;29;20564;-91
2021/01/30 20:38:00;;;;;;;11.10;9.57;;;0.20;99.90;;;;;;4876933;29;21309;-90
2021/01/30 20:40:36;;;;;;;13.57;9.27;;;0.20;1.00;;;;;;4853144;29;20496;-91
2021/01/30 20:43:26;;;;;;;13.53;9.87;;;0.20;1.00;;;;;;4885079;29;20852;-91
2021/01/30 20:49:54;;;;;;;11.70;9.13;;;0.20;1.00;;;;;;4839139;29;20901;-91
2021/01/30 20:52:21;;;;;;;11.40;9.60;;;0.10;1.00;;;;;;4859062;29;20895;-91
2021/01/30 20:54:49;;;;;;;10.97;9.33;;;0.20;1.00;;;;;;4880791;29;20764;-91
2021/01/30 20:57:17;;;;;;;11.63;8.73;;;0.10;1.00;;;;;;4885498;29;20486;-91
2021/01/30 20:59:43;;;;;;;13.40;9.93;;;0.10;1.00;;;;;;4885349;29;20475;-91
2021/01/30 21:02:10;;;;;;;14.57;9.93;;;0.10;1.00;;;;;;4884879;29;20581;-91
2021/01/30 21:04:39;;;;;;;12.43;10.20;;;0.10;1.00;;;;;;4885345;29;20905;-91
2021/01/30 21:07:06;;;;;;;15.90;11.20;;;0.10;1.00;;;;;;4884522;29;20918;-91
2021/01/30 21:09:33;;;;;;;16.80;11.50;;;0.10;1.00;;;;;;4885275;29;20535;-91
2021/01/30 21:12:00;;;;;;;15.53;10.40;;;0.10;1.00;;;;;;4884402;29;20479;-91
2021/01/30 21:14:28;;;;;;;15.50;11.30;;;0.10;1.00;;;;;;4884464;29;20501;-91
2021/01/30 21:16:57;;;;;;;12.40;10.10;;;0.10;1.00;;;;;;4884359;29;20479;-91
2021/01/30 21:19:24;;;;;;;13.93;11.03;;;0.00;1.00;;;;;;4884112;29;20474;-91
2021/01/30 21:21:51;;;;;;;13.40;10.70;;;0.00;1.00;;;;;;4884258;29;20533;-91
2021/01/30 21:24:18;;;;;;;14.17;11.37;;;0.00;1.00;;;;;;4876545;29;20485;-91
2021/01/30 21:26:45;;;;;;;12.33;10.40;;;0.00;1.00;;;;;;4884012;29;20486;-91
2021/01/30 21:29:13;;;;;;;14.47;11.03;;;-0.10;1.00;;;;;;4867880;29;20522;-91
2021/01/30 21:32:13;;;;;;;13.23;10.33;;;0.00;1.00;;;;;;4865685;29;20479;-92
2021/01/30 23:17:55;;;;;;;15.50;11.17;;;-1.00;99.90;;;;;;656025;23;21953;-91
